Time;durP1;ratioP1;P1;durP2;ratioP2;P2;SDS_P1;SDS_P2;PMS_P1;PMS_P2;Temp;Humidity;BMP_temperature;BMP_pressure;BME280_temperature;BME280_humidity;BME280_pressure;Samples;Min_cycle;Max_cycle;Signal;HPM_P1;HPM_P2
2023/06/24 05:40:38;;;;;;;3.08;1.98;;;;;;;;;;6240476;22;20350;-82
2023/06/24 05:43:04;;;;;;;2.53;1.90;;;;;;;;;;6308053;22;20011;-81
2023/06/24 05:45:29;;;;;;;1.90;1.60;;;;;;;;;;6307827;22;20007;-81
2023/06/24 05:47:55;;;;;;;2.65;1.85;;;;;;;;;;6307715;22;20004;-81
2023/06/24 05:50:20;;;;;;;1.60;1.50;;;;;;;;;;6307872;22;20080;-81
2023/06/24 05:52:45;;;;;;;2.10;1.90;;;;;;;;;;6307871;22;19999;-80
2023/06/24 05:55:13;;;;;;;3.10;1.80;;;;;;;;;;6307844;22;20002;-83
2023/06/24 05:57:39;;;;;;;2.47;1.63;;;;;;;;;;6307802;22;19995;-78
2023/06/24 06:00:05;;;;;;;2.00;1.60;;;;;;;;;;6307697;22;20010;-82
2023/06/24 19:17:57;;;;;;;4.20;2.85;;;;;;;;;;6240943;22;20020;-86
2023/06/24 19:20:22;;;;;;;2.88;2.30;;;;;;;;;;6247820;23;20016;-94
2023/06/24 19:22:48;;;;;;;2.63;2.42;;;;;;;;;;6247615;23;20000;-85
2023/06/24 19:25:13;;;;;;;5.25;2.50;;;;;;;;;;6267861;22;20007;-84
2023/06/24 19:27:39;;;;;;;3.40;2.55;;;;;;;;;;6278146;22;20304;-84
2023/06/24 19:30:06;;;;;;;3.28;2.60;;;;;;;;;;6277786;22;20358;-84
2023/06/24 19:32:32;;;;;;;3.72;2.78;;;;;;;;;;6278054;22;20003;-83
2023/06/24 19:35:01;;;;;;;7.30;2.78;;;;;;;;;;6276021;22;20035;-83
2023/06/24 19:37:27;;;;;;;4.03;2.28;;;;;;;;;;6277997;22;20338;-83
2023/06/24 19:39:52;;;;;;;3.08;2.38;;;;;;;;;;6250730;22;20059;-83
2023/06/24 19:42:18;;;;;;;2.80;2.60;;;;;;;;;;6277778;22;20429;-83
2023/06/24 19:44:43;;;;;;;3.83;2.50;;;;;;;;;;6277720;22;20007;-83
2023/06/24 19:47:09;;;;;;;3.45;2.58;;;;;;;;;;6277800;22;20012;-83
2023/06/24 19:49:38;;;;;;;3.42;2.55;;;;;;;;;;6277686;22;20053;-83
2023/06/24 19:52:04;;;;;;;3.83;2.55;;;;;;;;;;6277711;22;20004;-82
2023/06/24 19:54:29;;;;;;;3.00;2.42;;;;;;;;;;6277299;22;20027;-83
2023/06/24 19:56:54;;;;;;;4.78;2.65;;;;;;;;;;6277786;22;20404;-83
2023/06/24 19:59:20;;;;;;;3.25;2.38;;;;;;;;;;6277404;22;20023;-82
2023/06/24 20:01:45;;;;;;;3.92;2.47;;;;;;;;;;6277287;22;20011;-84
2023/06/24 20:04:11;;;;;;;3.63;2.53;;;;;;;;;;6277615;22;20007;-84
2023/06/24 20:06:36;;;;;;;4.78;2.53;;;;;;;;;;6277694;22;20004;-84
2023/06/24 20:09:02;;;;;;;3.38;2.83;;;;;;;;;;6277244;22;20004;-83
2023/06/24 20:11:27;;;;;;;3.00;2.30;;;;;;;;;;6277447;22;20407;-83
2023/06/24 20:13:52;;;;;;;3.42;2.55;;;;;;;;;;6277450;22;20003;-83
2023/06/24 20:16:18;;;;;;;4.35;3.05;;;;;;;;;;6277416;22;20087;-83
2023/06/24 20:18:43;;;;;;;3.30;2.65;;;;;;;;;;6277191;22;20007;-83
2023/06/24 20:21:13;;;;;;;3.67;2.60;;;;;;;;;;6277677;22;20307;-88
2023/06/24 20:23:39;;;;;;;3.50;2.40;;;;;;;;;;6277466;22;20011;-84
2023/06/24 20:26:05;;;;;;;2.70;2.50;;;;;;;;;;6277706;22;20000;-85
2023/06/24 20:28:30;;;;;;;3.70;2.50;;;;;;;;;;6264897;22;20006;-85
2023/06/24 20:31:02;;;;;;;2.80;2.58;;;;;;;;;;6277314;22;20035;-85
2023/06/24 20:33:28;;;;;;;4.68;2.90;;;;;;;;;;6277503;22;20491;-85
2023/06/24 20:35:54;;;;;;;3.28;2.65;;;;;;;;;;6250226;22;20031;-85
2023/06/24 20:38:19;;;;;;;3.80;2.40;;;;;;;;;;6277605;22;20007;-85
2023/06/24 20:40:44;;;;;;;3.20;2.90;;;;;;;;;;6278013;22;20375;-85
2023/06/24 20:43:10;;;;;;;4.00;2.80;;;;;;;;;;6277576;22;20407;-86
2023/06/24 20:45:35;;;;;;;5.03;2.80;;;;;;;;;;6277446;22;20000;-85
